createdAt,value
2018-06-08T08:30:35.066Z,2.67
2018-06-08T08:33:04.160Z,2.40
2018-06-08T08:35:32.432Z,2.20
2018-06-08T08:38:00.816Z,2.70
2018-06-08T08:40:29.492Z,2.45
2018-06-08T08:43:32.031Z,2.42
2018-06-08T08:46:00.773Z,2.80
2018-06-08T08:48:29.499Z,3.00
2018-06-08T08:50:58.081Z,2.52
2018-06-08T08:53:26.712Z,2.50
2018-06-08T08:55:54.998Z,2.87
2018-06-08T08:58:23.703Z,2.87
2018-06-08T09:00:52.395Z,3.60
2018-06-08T09:03:21.015Z,2.45
2018-06-08T09:05:49.615Z,2.00
2018-06-08T09:08:18.254Z,2.40
2018-06-08T09:10:46.974Z,2.65
2018-06-08T09:13:16.046Z,2.55
2018-06-08T09:15:47.580Z,3.00
2018-06-08T09:18:16.431Z,2.92
2018-06-08T09:20:44.833Z,2.22
2018-06-08T09:23:13.470Z,2.60
2018-06-08T09:25:42.277Z,2.85
2018-06-08T09:28:11.275Z,2.80
2018-06-08T09:30:39.607Z,2.50
2018-06-08T09:33:08.341Z,3.00
2018-06-08T09:35:36.962Z,2.77
2018-06-08T09:38:05.776Z,2.27
2018-06-08T09:40:34.359Z,2.30
2018-06-08T09:43:03.091Z,2.05
2018-06-08T09:45:31.714Z,2.20
2018-06-08T09:48:00.446Z,2.35
2018-06-08T09:50:29.074Z,2.17
2018-06-08T09:52:57.698Z,2.10
2018-06-08T09:55:26.491Z,2.12
2018-06-08T09:57:55.119Z,2.20
2018-06-08T10:00:29.092Z,2.30
2018-06-08T10:02:57.728Z,2.10
2018-06-08T10:05:26.343Z,1.87
2018-06-08T10:07:55.003Z,1.98
2018-06-08T10:10:23.616Z,1.72
2018-06-08T10:12:53.386Z,1.60
2018-06-08T10:15:21.982Z,1.75
2018-06-08T10:17:50.628Z,2.42
2018-06-08T10:20:19.258Z,2.20
2018-06-08T10:22:48.012Z,2.20
2018-06-08T10:25:16.698Z,2.67
2018-06-08T10:27:45.025Z,2.35
2018-06-08T10:30:13.672Z,2.67
2018-06-08T10:32:42.381Z,2.55
2018-06-08T10:35:11.017Z,2.95
2018-06-08T10:37:39.303Z,2.90
2018-06-08T10:40:07.941Z,2.50
2018-06-08T10:42:36.554Z,3.08
2018-06-08T10:45:05.240Z,2.08
2018-06-08T10:47:33.889Z,2.60
2018-06-08T10:50:02.508Z,2.12
2018-06-08T10:52:30.910Z,2.45
2018-06-08T10:54:59.603Z,2.58
2018-06-08T10:57:31.519Z,2.58
2018-06-08T11:00:00.173Z,2.58
2018-06-08T11:02:28.860Z,2.70
2018-06-08T11:04:57.258Z,2.37
2018-06-08T11:07:25.902Z,2.30
2018-06-08T11:09:54.497Z,2.22
2018-06-08T11:12:23.147Z,2.42
2018-06-08T11:14:51.771Z,2.33
2018-06-08T11:17:20.539Z,2.00
2018-06-08T11:19:49.174Z,2.30
2018-06-08T11:22:17.930Z,2.20
2018-06-08T11:24:46.623Z,2.37
2018-06-08T11:27:15.345Z,2.17
2018-06-08T11:29:44.088Z,2.27
2018-06-08T11:32:12.730Z,2.17
2018-06-08T11:34:41.060Z,2.22
2018-06-08T11:37:09.679Z,1.90
2018-06-08T11:39:38.356Z,2.25
2018-06-08T11:42:06.962Z,1.60
2018-06-08T11:44:35.641Z,1.80
2018-06-08T11:47:04.342Z,1.42
2018-06-08T11:49:32.691Z,2.08
2018-06-08T11:52:01.324Z,1.62
2018-06-08T11:54:29.984Z,1.62
2018-06-08T11:56:58.345Z,1.62
2018-06-08T11:59:27.035Z,1.40
2018-06-08T12:01:55.643Z,1.82
2018-06-08T12:04:24.372Z,1.80
2018-06-08T12:06:53.206Z,1.85
2018-06-08T12:09:21.539Z,2.08
2018-06-08T12:11:50.177Z,1.65
2018-06-08T12:14:18.446Z,1.80
2018-06-08T12:16:46.813Z,2.12
2018-06-08T12:19:15.395Z,1.62
2018-06-08T12:21:43.689Z,1.90
2018-06-08T12:24:11.899Z,1.77
2018-06-08T12:26:40.522Z,1.50
2018-06-08T12:29:09.112Z,1.92
2018-06-08T12:31:37.678Z,1.60
2018-06-08T12:34:06.746Z,2.45
2018-06-08T12:36:35.399Z,1.67
2018-06-08T12:39:04.383Z,1.77
2018-06-08T12:41:32.710Z,2.08
2018-06-08T12:44:01.227Z,2.02
2018-06-08T12:46:29.904Z,1.50
2018-06-08T12:48:58.477Z,1.90
2018-06-08T12:51:26.979Z,2.08
2018-06-08T12:53:55.246Z,1.65
2018-06-08T12:56:23.779Z,1.75
2018-06-08T12:58:52.335Z,1.42
2018-06-08T13:01:20.818Z,1.47
2018-06-08T13:03:49.383Z,1.65
2018-06-08T13:06:17.931Z,1.37
2018-06-08T13:08:46.475Z,1.80
2018-06-08T13:11:15.140Z,2.00
2018-06-08T13:13:43.349Z,2.00
2018-06-08T13:16:11.906Z,1.55
2018-06-08T13:18:40.470Z,1.70
2018-06-08T13:21:08.775Z,2.12
2018-06-08T13:23:37.384Z,1.80
2018-06-08T13:26:06.029Z,1.62
2018-06-08T13:28:34.301Z,1.70
2018-06-08T13:31:02.867Z,1.40
2018-06-08T13:33:31.364Z,1.60
2018-06-08T13:35:59.646Z,2.77
2018-06-08T13:38:28.214Z,1.57
2018-06-08T13:40:56.490Z,1.50
2018-06-08T13:43:25.033Z,1.80
2018-06-08T13:45:53.583Z,1.92
2018-06-08T13:48:22.066Z,1.55
2018-06-08T13:50:50.614Z,2.17
2018-06-08T13:53:19.116Z,1.90
2018-06-08T13:55:47.635Z,1.80
2018-06-08T13:58:16.135Z,1.77
2018-06-08T14:00:44.701Z,2.25
2018-06-08T14:03:13.203Z,2.15
2018-06-08T14:05:41.764Z,1.60
2018-06-08T14:08:10.370Z,1.67
2018-06-08T14:10:38.870Z,1.85
2018-06-08T14:13:09.881Z,1.92
2018-06-08T14:15:38.381Z,1.60
2018-06-08T14:18:07.036Z,2.27
2018-06-08T14:20:35.612Z,1.77
2018-06-08T14:23:04.193Z,1.80
2018-06-08T14:25:32.795Z,1.80
2018-06-08T14:28:01.451Z,1.82
2018-06-08T14:30:30.952Z,1.77
2018-06-08T14:32:59.652Z,1.72
2018-06-08T14:35:28.255Z,1.60
2018-06-08T14:37:56.811Z,2.40
2018-06-08T14:40:25.318Z,2.00
2018-06-08T14:42:53.885Z,2.20
2018-06-08T14:45:22.451Z,2.15
2018-06-08T14:47:50.933Z,2.22
2018-06-08T14:50:19.487Z,1.90
2018-06-08T14:52:47.778Z,2.12
2018-06-08T14:55:16.290Z,2.05
2018-06-08T14:57:44.861Z,1.57
2018-06-08T15:00:13.356Z,1.75
2018-06-08T15:02:41.923Z,2.15
2018-06-08T15:05:10.536Z,2.00
2018-06-08T15:07:39.078Z,2.40
2018-06-08T15:10:08.164Z,1.90
2018-06-08T15:12:36.720Z,2.08
2018-06-08T15:15:05.270Z,1.90
2018-06-08T15:17:33.829Z,2.33
2018-06-08T15:20:02.365Z,1.98
2018-06-08T15:22:30.860Z,2.37
2018-06-08T15:24:59.409Z,2.02
2018-06-08T15:27:27.959Z,2.25
2018-06-08T15:29:56.626Z,2.50
2018-06-08T15:32:25.162Z,1.98
2018-06-08T15:34:53.701Z,1.90
2018-06-08T15:37:22.198Z,1.90
2018-06-08T15:39:50.738Z,2.00
2018-06-08T15:42:18.976Z,1.75
2018-06-08T15:44:47.544Z,1.77
2018-06-08T15:47:16.085Z,2.08
2018-06-08T15:49:44.320Z,2.00
2018-06-08T15:52:12.862Z,2.37
2018-06-08T15:54:41.374Z,1.82
2018-06-08T15:57:09.953Z,2.35
2018-06-08T15:59:38.501Z,2.17
2018-06-08T16:02:07.127Z,2.87
2018-06-08T16:04:35.735Z,1.90
2018-06-08T16:07:04.325Z,1.95
2018-06-08T16:09:32.816Z,2.40
2018-06-08T16:12:01.053Z,2.02
2018-06-08T16:14:29.588Z,2.08
2018-06-08T16:16:59.691Z,1.98
2018-06-08T16:19:28.166Z,2.27
2018-06-08T16:21:56.703Z,1.90
2018-06-08T16:24:25.194Z,2.30
2018-06-08T16:26:53.812Z,2.15
2018-06-08T16:29:22.295Z,2.02
2018-06-08T16:31:50.825Z,2.50
2018-06-08T16:34:19.372Z,2.35
2018-06-08T16:36:47.596Z,2.08
2018-06-08T16:39:16.131Z,2.17
2018-06-08T16:41:44.667Z,2.15
2018-06-08T16:44:13.263Z,2.10
2018-06-08T16:46:41.848Z,2.20
2018-06-08T16:49:10.362Z,2.08
2018-06-08T16:51:39.421Z,1.90
2018-06-08T16:54:08.578Z,1.75
2018-06-08T16:56:37.138Z,2.20
2018-06-08T16:59:05.726Z,1.95
2018-06-08T17:01:34.274Z,2.30
2018-06-08T17:04:02.880Z,2.22
2018-06-08T17:06:31.522Z,2.95
2018-06-08T17:09:00.056Z,2.25
2018-06-08T17:11:28.630Z,3.70
2018-06-08T17:13:57.259Z,2.95
2018-06-08T17:16:26.185Z,2.62
2018-06-08T17:18:54.742Z,2.87
2018-06-08T17:21:24.139Z,2.10
2018-06-08T17:23:53.337Z,2.12
2018-06-08T17:26:22.642Z,2.22
2018-06-08T17:28:51.799Z,2.25
2018-06-08T17:31:20.312Z,1.77
2018-06-08T17:33:48.917Z,2.10
2018-06-08T17:36:17.178Z,2.15
2018-06-08T17:38:45.718Z,2.12
2018-06-08T17:41:14.247Z,1.98
2018-06-08T17:43:42.808Z,2.20
2018-06-08T17:46:11.334Z,2.52
2018-06-08T17:48:39.877Z,2.27
2018-06-08T17:51:09.550Z,2.75
2018-06-08T17:53:38.097Z,2.37
2018-06-08T17:56:06.631Z,1.95
2018-06-08T17:58:35.252Z,2.12
2018-06-08T18:01:03.798Z,2.47
2018-06-08T18:03:32.419Z,2.00
2018-06-08T18:06:00.663Z,2.15
2018-06-08T18:08:29.226Z,1.95
2018-06-08T18:10:58.107Z,2.15
2018-06-08T18:13:26.666Z,2.05
2018-06-08T18:15:55.697Z,2.35
2018-06-08T18:18:25.556Z,2.45
2018-06-08T18:20:55.226Z,2.70
2018-06-08T18:23:24.130Z,2.35
2018-06-08T18:25:53.093Z,2.10
2018-06-08T18:28:22.115Z,2.25
2018-06-08T18:30:50.627Z,3.20
2018-06-08T18:33:18.950Z,2.60
2018-06-08T18:35:47.504Z,2.80
2018-06-08T18:38:16.037Z,2.20
2018-06-08T18:40:44.598Z,2.80
2018-06-08T18:43:13.203Z,2.45
2018-06-08T18:45:41.765Z,2.60
2018-06-08T18:48:10.314Z,2.95
2018-06-08T18:50:38.892Z,3.03
2018-06-08T18:53:07.178Z,3.27
2018-06-08T18:55:35.686Z,2.67
2018-06-08T18:58:04.271Z,2.37
2018-06-08T19:00:32.869Z,2.95
2018-06-08T19:03:01.399Z,3.03
2018-06-08T19:05:29.967Z,2.80
2018-06-08T19:07:58.553Z,2.87
2018-06-08T19:10:26.781Z,2.33
2018-06-08T19:12:55.418Z,2.43
2018-06-08T19:15:24.762Z,2.30
2018-06-08T19:17:54.323Z,2.53
2018-06-08T19:20:24.071Z,3.00
2018-06-08T19:22:53.415Z,2.80
2018-06-08T19:25:22.395Z,3.17
2018-06-08T19:27:50.896Z,2.23
2018-06-08T19:30:19.630Z,2.27
2018-06-08T19:32:49.798Z,3.53
2018-06-08T19:35:19.079Z,3.10
2018-06-08T19:37:47.646Z,3.10
2018-06-08T19:40:16.175Z,3.03
2018-06-08T19:42:44.707Z,2.83
2018-06-08T19:45:13.231Z,3.00
2018-06-08T19:47:41.775Z,3.07
2018-06-08T19:50:10.329Z,2.50
2018-06-08T19:52:38.887Z,2.90
2018-06-08T19:55:07.464Z,3.57
2018-06-08T19:57:36.014Z,2.57
2018-06-08T20:00:04.687Z,3.43
2018-06-08T20:02:33.259Z,3.60
2018-06-08T20:05:01.849Z,3.07
2018-06-08T20:07:30.378Z,2.50
2018-06-08T20:09:58.907Z,2.53
2018-06-08T20:12:27.419Z,3.00
2018-06-08T20:14:56.101Z,3.30
2018-06-08T20:17:24.673Z,3.30
2018-06-08T20:19:53.822Z,3.93
2018-06-08T20:22:22.966Z,4.03
2018-06-08T20:24:51.977Z,2.90
2018-06-08T20:27:20.497Z,3.50
2018-06-08T20:29:48.792Z,3.73
2018-06-08T20:32:17.299Z,3.50
2018-06-08T20:34:45.876Z,3.13
2018-06-08T20:37:14.362Z,2.67
2018-06-08T20:39:42.841Z,3.40
2018-06-08T20:42:11.403Z,3.27
2018-06-08T20:44:40.040Z,3.33
2018-06-08T20:47:08.554Z,3.00
2018-06-08T20:49:36.761Z,3.03
2018-06-08T20:52:05.351Z,3.10
2018-06-08T20:54:33.823Z,4.10
2018-06-08T20:58:13.826Z,2.97
2018-06-08T21:00:42.383Z,5.13
2018-06-08T21:03:10.939Z,3.73
2018-06-08T21:05:39.405Z,3.27
2018-06-08T21:08:07.955Z,3.00
2018-06-08T21:10:36.448Z,3.47
2018-06-08T21:13:04.740Z,4.20
2018-06-08T21:15:33.253Z,4.17
2018-06-08T21:18:01.795Z,3.80
2018-06-08T21:20:30.072Z,4.00
2018-06-08T21:22:58.592Z,3.80
2018-06-08T21:25:27.160Z,2.73
2018-06-08T21:27:55.735Z,3.67
2018-06-08T21:30:25.264Z,3.27
2018-06-08T21:32:55.179Z,3.47
2018-06-08T21:35:23.733Z,3.00
2018-06-08T21:37:52.350Z,3.30
2018-06-08T21:40:21.320Z,3.63
2018-06-08T21:42:50.008Z,3.13
2018-06-08T21:45:18.669Z,3.80
2018-06-08T21:47:46.889Z,3.27
2018-06-08T21:50:15.438Z,3.73
2018-06-08T21:52:43.664Z,3.27
2018-06-08T21:55:12.262Z,3.67
2018-06-08T21:57:40.778Z,3.77
2018-06-08T22:00:08.998Z,3.40
2018-06-08T22:02:37.551Z,3.10
2018-06-08T22:05:06.152Z,4.30
2018-06-08T22:07:34.727Z,3.67
2018-06-08T22:10:03.294Z,3.83
2018-06-08T22:12:31.857Z,4.20
2018-06-08T22:15:00.396Z,3.77
2018-06-08T22:17:28.910Z,4.10
2018-06-08T22:19:57.495Z,4.80
2018-06-08T22:22:26.071Z,5.37
2018-06-08T22:24:55.229Z,3.70
2018-06-08T22:27:24.851Z,4.33
2018-06-08T22:29:54.340Z,3.70
2018-06-08T22:32:23.122Z,3.87
2018-06-08T22:34:52.328Z,3.90
2018-06-08T22:37:20.843Z,4.07
2018-06-08T22:39:50.278Z,3.67
2018-06-08T22:42:18.831Z,3.30
2018-06-08T22:44:47.305Z,3.60
2018-06-08T22:47:15.848Z,3.97
2018-06-08T22:49:44.439Z,3.70
2018-06-08T22:52:12.970Z,3.53
2018-06-08T22:54:41.487Z,3.83
2018-06-08T22:57:10.055Z,3.63
2018-06-08T22:59:38.624Z,3.60
2018-06-08T23:02:06.859Z,3.33
2018-06-08T23:04:35.425Z,4.13
2018-06-08T23:07:03.958Z,4.30
2018-06-08T23:09:32.539Z,3.87
2018-06-08T23:12:01.039Z,3.77
2018-06-08T23:14:29.297Z,3.70
2018-06-08T23:16:57.789Z,3.60
2018-06-08T23:19:26.050Z,3.53
2018-06-08T23:21:54.534Z,3.63
2018-06-08T23:24:24.111Z,3.03
2018-06-08T23:26:53.507Z,3.40
2018-06-08T23:29:22.800Z,4.17
2018-06-08T23:31:51.979Z,3.43
2018-06-08T23:34:20.458Z,3.60
2018-06-08T23:36:48.990Z,3.50
2018-06-08T23:39:17.541Z,3.80
2018-06-08T23:41:46.060Z,3.50
2018-06-08T23:44:14.601Z,3.20
2018-06-08T23:46:43.114Z,3.50
2018-06-08T23:49:11.614Z,3.33
2018-06-08T23:51:40.137Z,2.87
2018-06-08T23:54:08.630Z,3.40
2018-06-08T23:56:37.159Z,3.87
2018-06-08T23:59:05.389Z,4.03
